Time;durP1;ratioP1;P1;durP2;ratioP2;P2;SDS_P1;SDS_P2;PMS_P1;PMS_P2;Temp;Humidity;BMP_temperature;BMP_pressure;BME280_temperature;BME280_humidity;BME280_pressure;Samples;Min_cycle;Max_cycle;Signal;HPM_P1;HPM_P2
2022/01/29 00:00:26;;;;;;;60.33;20.80;;;2.40;99.90;;;1.23;100.00;99289.13;5026419;28;20136;-66
2022/01/29 00:02:53;;;;;;;55.85;19.60;;;2.40;99.90;;;1.22;100.00;99294.19;5025437;28;20128;-67
2022/01/29 00:05:20;;;;;;;43.85;18.65;;;2.40;99.90;;;1.34;100.00;99291.03;5026863;28;20533;-67
2022/01/29 00:07:47;;;;;;;77.22;25.45;;;2.40;99.90;;;1.36;100.00;99290.22;5026307;28;20088;-68
2022/01/29 00:10:14;;;;;;;59.22;21.77;;;2.40;99.90;;;1.33;100.00;99282.50;5011001;28;20088;-67
2022/01/29 00:12:42;;;;;;;44.78;17.83;;;2.40;99.90;;;1.44;100.00;99278.47;5026069;28;20474;-67
2022/01/29 00:15:10;;;;;;;65.95;22.58;;;2.40;99.90;;;1.28;100.00;99281.56;5024279;28;20046;-66
2022/01/29 00:17:37;;;;;;;53.28;19.63;;;2.40;99.90;;;1.28;100.00;99268.75;5027176;28;20484;-67
2022/01/29 00:20:06;;;;;;;53.40;19.10;;;2.40;99.90;;;1.39;100.00;99269.84;5029357;28;20393;-67
2022/01/29 00:22:33;;;;;;;58.58;21.13;;;2.40;99.90;;;1.33;100.00;99258.63;5024359;28;20153;-66
2022/01/29 00:25:00;;;;;;;54.45;21.40;;;2.40;99.90;;;1.18;100.00;99260.00;5022820;28;20432;-68
2022/01/29 00:27:30;;;;;;;59.75;21.38;;;2.40;99.90;;;1.27;100.00;99248.25;5025491;28;20049;-68
2022/01/29 00:29:58;;;;;;;52.70;19.05;;;2.40;99.90;;;1.45;100.00;99236.69;5025527;28;20140;-67
2022/01/29 00:32:27;;;;;;;43.38;17.60;;;2.30;99.90;;;1.37;100.00;99227.13;5026201;28;20073;-67
2022/01/29 00:34:55;;;;;;;41.30;17.70;;;2.30;99.90;;;1.18;100.00;99234.41;5025414;28;20121;-67
2022/01/29 00:37:22;;;;;;;47.67;16.67;;;2.30;99.90;;;1.24;100.00;99228.59;5026884;28;20071;-67
2022/01/29 00:39:48;;;;;;;40.95;15.02;;;2.30;99.90;;;1.25;100.00;99225.19;5024944;28;20053;-67
2022/01/29 00:42:16;;;;;;;52.95;18.27;;;2.30;99.90;;;1.35;100.00;99216.03;5023972;28;20128;-67
2022/01/29 00:44:44;;;;;;;39.42;16.60;;;2.30;99.90;;;1.23;100.00;99221.72;5022953;28;20296;-67
2022/01/29 00:47:13;;;;;;;52.05;16.80;;;2.30;99.90;;;1.21;100.00;99197.84;5024070;28;20179;-67
2022/01/29 00:49:41;;;;;;;43.47;17.70;;;2.20;99.90;;;1.23;100.00;99199.59;5024202;28;20048;-67
2022/01/29 00:52:08;;;;;;;53.17;19.50;;;2.20;99.90;;;1.28;100.00;99192.00;5021541;28;20403;-67
2022/01/29 00:54:35;;;;;;;43.92;17.27;;;2.30;99.90;;;1.29;100.00;99187.75;5023763;28;20149;-66
2022/01/29 00:57:03;;;;;;;43.95;16.05;;;2.30;99.90;;;1.16;100.00;99199.41;5023994;28;20492;-67
2022/01/29 00:59:31;;;;;;;56.13;19.60;;;2.20;99.90;;;1.06;100.00;99183.03;5024832;28;20144;-67
2022/01/29 01:01:58;;;;;;;56.42;19.33;;;2.30;99.90;;;1.02;100.00;99186.34;5025535;28;20502;-67
2022/01/29 01:04:25;;;;;;;48.00;20.25;;;2.30;99.90;;;1.10;100.00;99192.50;5025275;28;20038;-67
2022/01/29 01:06:52;;;;;;;48.28;19.30;;;2.30;99.90;;;1.18;100.00;99195.19;5024307;28;20610;-67
2022/01/29 01:09:20;;;;;;;44.03;16.35;;;2.30;99.90;;;1.19;100.00;99202.91;5024005;28;20120;-67
2022/01/29 01:11:46;;;;;;;59.75;21.05;;;2.20;99.90;;;1.15;100.00;99197.69;5024446;28;20368;-67
2022/01/29 01:14:13;;;;;;;48.25;19.52;;;2.30;99.90;;;1.11;100.00;99203.56;5023383;28;20180;-67
2022/01/29 01:16:40;;;;;;;80.25;23.98;;;2.30;99.90;;;1.14;100.00;99207.06;5024215;28;20042;-66
2022/01/29 01:19:07;;;;;;;56.17;20.42;;;2.30;99.90;;;1.28;100.00;99184.34;5028380;28;20049;-66
2022/01/29 01:21:34;;;;;;;53.08;17.88;;;2.20;99.90;;;1.15;100.00;99201.13;5025460;28;20156;-67
2022/01/29 01:24:01;;;;;;;53.67;18.75;;;2.20;99.90;;;1.08;100.00;99191.59;5028354;28;20084;-66
2022/01/29 01:26:28;;;;;;;59.72;20.30;;;2.30;99.90;;;1.07;100.00;99194.09;5025846;28;20045;-68
2022/01/29 01:28:55;;;;;;;49.30;19.48;;;2.20;99.90;;;1.17;100.00;99176.44;5022959;28;20045;-65
2022/01/29 01:31:22;;;;;;;59.80;21.17;;;2.20;99.90;;;1.16;100.00;99184.06;5022676;28;20049;-67
2022/01/29 01:33:50;;;;;;;53.05;16.20;;;2.20;99.90;;;1.16;100.00;99184.06;5023955;28;20063;-67
2022/01/29 01:36:22;;;;;;;35.15;14.75;;;2.20;99.90;;;1.18;100.00;99182.41;5024964;28;20084;-67
2022/01/29 01:39:00;;;;;;;50.85;17.35;;;2.10;99.90;;;1.20;100.00;99173.94;5025101;28;20084;-66
2022/01/29 01:41:28;;;;;;;48.42;17.13;;;2.20;99.90;;;1.19;100.00;99179.03;5026751;28;20541;-68
2022/01/29 01:44:03;;;;;;;43.95;17.13;;;2.10;99.90;;;1.22;100.00;99169.72;5028293;28;20056;-68
2022/01/29 01:46:30;;;;;;;48.45;19.70;;;2.20;99.90;;;1.25;100.00;99174.03;5026008;28;20112;-68
2022/01/29 01:48:57;;;;;;;55.47;20.77;;;2.20;99.90;;;1.08;100.00;99176.25;5028040;28;20146;-67
2022/01/29 01:51:25;;;;;;;46.83;17.30;;;2.30;99.90;;;1.11;100.00;99183.13;5026725;28;20453;-68
2022/01/29 01:53:52;;;;;;;44.17;16.63;;;2.20;99.90;;;1.13;100.00;99176.34;5027098;28;20486;-67
2022/01/29 01:56:19;;;;;;;56.53;21.88;;;2.20;99.90;;;1.08;100.00;99177.94;5024186;28;20483;-68
2022/01/29 01:58:47;;;;;;;54.13;22.33;;;2.20;99.90;;;1.16;100.00;99164.47;5026525;28;20041;-67
2022/01/29 02:01:14;;;;;;;58.25;20.65;;;2.20;99.90;;;1.18;100.00;99161.94;5026317;28;20148;-67
2022/01/29 02:03:42;;;;;;;51.10;17.58;;;2.20;99.90;;;1.10;100.00;99166.06;5026867;28;20129;-66
2022/01/29 02:06:09;;;;;;;43.92;18.08;;;2.20;99.90;;;1.11;100.00;99172.88;5026383;28;20049;-68
2022/01/29 02:08:36;;;;;;;59.63;21.67;;;2.20;99.90;;;0.98;100.00;99169.19;5026208;28;20128;-67
2022/01/29 02:11:07;;;;;;;48.40;17.75;;;2.20;99.90;;;1.07;100.00;99169.38;5027914;28;20068;-68
2022/01/29 02:13:34;;;;;;;43.00;16.85;;;2.20;99.90;;;1.08;100.00;99157.50;5027283;28;20450;-67
2022/01/29 02:16:02;;;;;;;51.95;18.10;;;2.20;99.90;;;1.02;100.00;99168.44;5027761;28;20057;-68
2022/01/29 02:18:29;;;;;;;45.80;19.42;;;2.20;99.90;;;1.04;100.00;99144.63;5027011;28;20513;-67
2022/01/29 02:20:58;;;;;;;48.83;16.88;;;2.20;99.90;;;1.06;100.00;99139.56;5026049;28;20068;-67
2022/01/29 02:23:25;;;;;;;48.58;19.23;;;2.20;99.90;;;1.10;100.00;99137.94;5026649;28;20107;-67
2022/01/29 02:25:54;;;;;;;50.42;19.75;;;2.10;99.90;;;1.08;100.00;99114.88;5026571;28;20128;-67
2022/01/29 02:28:23;;;;;;;54.70;20.33;;;2.10;99.90;;;1.19;100.00;99105.72;5026967;28;20080;-67
2022/01/29 02:31:00;;;;;;;63.78;20.70;;;2.20;99.90;;;1.03;100.00;99112.22;5025815;28;20122;-67
2022/01/29 02:33:31;;;;;;;63.65;20.17;;;2.20;99.90;;;1.00;100.00;99112.19;5026970;28;20467;-67
2022/01/29 02:35:58;;;;;;;56.67;16.90;;;2.20;99.90;;;0.89;100.00;99116.22;5028002;28;20496;-68
2022/01/29 02:38:26;;;;;;;72.07;20.73;;;2.10;99.90;;;0.90;100.00;99125.59;5025380;28;20061;-67
2022/01/29 02:41:01;;;;;;;54.33;19.08;;;2.10;99.90;;;0.96;100.00;99120.59;5025479;28;20371;-66
2022/01/29 02:43:37;;;;;;;53.17;14.70;;;2.10;99.90;;;0.96;100.00;99130.84;5025278;28;20128;-67
2022/01/29 02:46:12;;;;;;;65.40;20.10;;;2.00;99.90;;;1.01;100.00;99119.00;5027121;28;20504;-67
2022/01/29 02:48:39;;;;;;;48.47;16.95;;;2.10;99.90;;;0.92;100.00;99125.63;5027806;28;20135;-68
2022/01/29 02:51:06;;;;;;;62.60;17.38;;;2.10;99.90;;;0.92;100.00;99117.97;5029948;28;20047;-68
2022/01/29 02:53:33;;;;;;;48.20;15.38;;;2.10;99.90;;;0.90;100.00;99110.25;5028514;28;20053;-67
2022/01/29 02:56:00;;;;;;;63.53;17.90;;;2.10;99.90;;;0.94;100.00;99101.81;5043232;28;20054;-66
2022/01/29 02:58:27;;;;;;;57.50;17.38;;;2.10;99.90;;;0.85;100.00;99099.06;5028425;28;20129;-68
2022/01/29 03:00:54;;;;;;;67.90;18.33;;;2.10;99.90;;;0.74;100.00;99100.53;5030829;28;20077;-67
2022/01/29 03:03:22;;;;;;;60.17;17.75;;;2.10;99.90;;;0.77;100.00;99092.94;5031135;28;20045;-66
2022/01/29 03:05:49;;;;;;;49.78;14.73;;;2.00;99.90;;;0.80;100.00;99080.22;5025874;28;20627;-67
2022/01/29 03:08:16;;;;;;;53.50;16.95;;;2.00;99.90;;;0.86;100.00;99070.09;5024511;28;20060;-66
2022/01/29 03:10:43;;;;;;;55.95;16.30;;;2.10;99.90;;;0.84;100.00;99066.66;5027466;28;20196;-67
2022/01/29 03:13:17;;;;;;;49.00;14.65;;;2.00;99.90;;;0.78;100.00;99067.41;5028278;28;20138;-67
2022/01/29 03:15:44;;;;;;;59.13;16.30;;;2.00;99.90;;;0.78;100.00;99061.44;5030736;28;20387;-68
2022/01/29 03:18:11;;;;;;;67.32;16.25;;;2.00;99.90;;;0.72;100.00;99071.53;5029226;28;20053;-67
2022/01/29 03:20:39;;;;;;;47.50;15.43;;;2.00;99.90;;;0.79;100.00;99066.56;5030595;28;20543;-67
2022/01/29 03:23:05;;;;;;;54.92;16.83;;;2.00;99.90;;;0.71;100.00;99057.91;5032562;28;20076;-68
2022/01/29 03:25:32;;;;;;;58.53;15.95;;;2.00;99.90;;;0.81;100.00;99029.13;5033214;28;20060;-68
2022/01/29 03:27:59;;;;;;;55.88;16.92;;;2.00;99.90;;;0.85;100.00;99041.97;5031142;28;20045;-67
2022/01/29 03:30:26;;;;;;;74.85;19.58;;;2.00;99.90;;;0.93;100.00;99038.72;5027326;28;20113;-67
2022/01/29 03:32:53;;;;;;;44.35;14.10;;;1.90;99.90;;;0.78;100.00;99046.97;5026680;28;20064;-68
2022/01/29 03:35:20;;;;;;;54.55;18.25;;;2.00;99.90;;;0.89;100.00;99036.97;5026156;28;20071;-68
2022/01/29 03:37:47;;;;;;;55.08;16.27;;;1.90;99.90;;;0.81;100.00;99043.59;5025939;28;20480;-68
2022/01/29 03:40:14;;;;;;;59.85;17.58;;;1.90;99.90;;;0.77;100.00;99029.88;5025750;28;20138;-67
2022/01/29 03:42:56;;;;;;;62.10;19.00;;;2.00;99.90;;;0.91;100.00;99013.97;5026600;28;20073;-68
2022/01/29 03:45:23;;;;;;;39.20;13.63;;;2.00;99.90;;;0.81;100.00;98995.03;5030680;28;20120;-67
2022/01/29 03:47:50;;;;;;;47.70;15.95;;;2.00;99.90;;;0.79;100.00;99002.66;5031032;28;20172;-66
2022/01/29 03:50:17;;;;;;;47.05;16.50;;;2.00;99.90;;;0.70;100.00;99025.50;5031009;28;20044;-67
2022/01/29 03:52:44;;;;;;;32.85;11.88;;;2.00;99.90;;;0.77;100.00;98990.69;5030833;28;20053;-68
2022/01/29 03:55:11;;;;;;;41.42;15.85;;;2.00;99.90;;;0.92;100.00;98992.69;5028431;28;20585;-67
2022/01/29 03:57:37;;;;;;;39.30;14.57;;;2.00;99.90;;;0.94;100.00;98994.44;5032115;28;20136;-67
2022/01/29 04:00:06;;;;;;;38.63;12.52;;;1.90;99.90;;;0.92;100.00;98993.53;5030018;28;20053;-67
2022/01/29 04:02:33;;;;;;;40.80;14.15;;;2.00;99.90;;;0.87;100.00;99007.06;5030737;28;20362;-67
2022/01/29 04:05:00;;;;;;;39.45;16.13;;;2.00;99.90;;;1.07;100.00;99004.88;5029869;28;20084;-67
2022/01/29 04:07:27;;;;;;;38.85;13.05;;;1.90;99.90;;;1.07;100.00;98995.50;5029140;28;20048;-66
2022/01/29 04:09:54;;;;;;;36.88;14.25;;;1.90;99.90;;;1.19;100.00;99013.66;5029872;28;20228;-67
2022/01/29 04:12:24;;;;;;;34.38;12.27;;;2.00;99.90;;;0.88;100.00;99019.03;5030948;28;20128;-66
2022/01/29 04:14:53;;;;;;;34.67;11.18;;;2.00;99.90;;;1.02;100.00;99017.56;5029616;28;20136;-67
2022/01/29 04:17:20;;;;;;;31.25;12.52;;;2.00;99.90;;;0.96;100.00;98992.78;5031054;28;20075;-67
2022/01/29 04:19:47;;;;;;;33.50;12.98;;;2.00;99.90;;;1.08;100.00;98991.28;5030881;28;20128;-68
2022/01/29 04:22:14;;;;;;;37.50;14.07;;;2.00;99.90;;;1.10;100.00;99008.38;5032821;28;20049;-67
2022/01/29 04:24:41;;;;;;;23.05;10.65;;;2.00;99.90;;;1.18;100.00;99005.94;5032416;28;20408;-66
2022/01/29 04:27:16;;;;;;;28.35;10.35;;;1.90;99.90;;;1.02;100.00;99027.81;5014189;28;20057;-67
2022/01/29 04:29:54;;;;;;;39.17;14.40;;;2.00;99.90;;;0.98;100.00;99028.56;5028773;28;20046;-67
2022/01/29 04:32:32;;;;;;;31.88;12.05;;;2.00;99.90;;;1.03;100.00;99009.09;5029110;28;20073;-67
2022/01/29 04:34:59;;;;;;;31.42;12.25;;;2.00;99.90;;;1.02;100.00;99015.88;5030275;28;20049;-67
2022/01/29 04:37:25;;;;;;;33.47;13.00;;;2.00;99.90;;;1.02;100.00;99012.47;5029874;28;20081;-67
2022/01/29 04:39:52;;;;;;;30.05;12.65;;;2.00;99.90;;;0.94;100.00;99012.34;5030151;28;20046;-67
2022/01/29 04:42:19;;;;;;;42.20;13.80;;;2.00;99.90;;;1.05;100.00;99002.31;5030036;28;20211;-66
2022/01/29 04:44:47;;;;;;;33.47;12.38;;;2.10;99.90;;;1.12;100.00;98993.03;5030379;28;20091;-67
2022/01/29 04:47:13;;;;;;;31.52;13.32;;;2.00;99.90;;;1.12;100.00;98983.69;5029857;28;20125;-66
2022/01/29 04:49:40;;;;;;;41.58;14.48;;;2.00;99.90;;;1.12;100.00;98976.00;5027419;28;20124;-67
2022/01/29 04:52:07;;;;;;;33.67;13.32;;;2.00;99.90;;;1.01;100.00;98996.28;5030020;28;20485;-66
2022/01/29 04:54:34;;;;;;;30.17;13.10;;;2.00;99.90;;;1.09;100.00;99003.22;5030361;28;20132;-67
2022/01/29 04:57:01;;;;;;;33.03;13.68;;;2.00;99.90;;;0.90;100.00;99007.13;5028489;28;20129;-68
2022/01/29 04:59:28;;;;;;;44.10;15.20;;;2.00;99.90;;;1.10;100.00;98981.94;5028526;28;20466;-67
2022/01/29 05:01:55;;;;;;;38.38;14.88;;;2.10;99.90;;;0.99;100.00;98994.53;5029648;28;20055;-67
2022/01/29 05:04:22;;;;;;;41.38;15.05;;;2.10;99.90;;;0.94;100.00;98988.47;5029549;28;20390;-66
2022/01/29 05:06:49;;;;;;;43.28;15.68;;;2.10;99.90;;;0.99;100.00;98987.72;5027171;28;20569;-67
2022/01/29 05:09:16;;;;;;;37.63;14.10;;;2.10;99.90;;;1.09;100.00;98987.88;5029936;28;20047;-67
2022/01/29 05:11:46;;;;;;;32.50;13.00;;;2.00;99.90;;;1.02;100.00;98979.22;5026346;28;20385;-67
2022/01/29 05:14:24;;;;;;;50.40;16.48;;;2.00;99.90;;;1.01;100.00;98997.97;5029515;28;20045;-67
2022/01/29 05:27:51;;;;;;;43.67;16.00;;;1.90;99.90;;;1.10;100.00;98974.28;5030079;28;20518;-67
2022/01/29 05:30:18;;;;;;;37.97;13.55;;;2.00;99.90;;;1.08;100.00;98989.56;5034188;28;20080;-66
2022/01/29 05:32:45;;;;;;;44.20;13.23;;;1.90;99.90;;;0.75;100.00;99007.69;5040310;28;20075;-66
2022/01/29 05:35:12;;;;;;;46.50;15.60;;;2.00;99.90;;;0.79;100.00;98999.25;5042142;28;20527;-66
2022/01/29 05:37:40;;;;;;;39.83;14.55;;;1.90;99.90;;;0.81;100.00;99008.66;5041742;28;20691;-67
2022/01/29 05:40:08;;;;;;;50.88;16.08;;;1.90;99.90;;;0.82;100.00;98981.41;5038556;28;20056;-66
2022/01/29 05:42:35;;;;;;;40.33;14.10;;;1.90;99.90;;;0.80;100.00;98994.19;5035522;28;20045;-66
2022/01/29 05:45:03;;;;;;;52.17;16.40;;;1.90;99.90;;;0.65;100.00;99003.25;5028873;28;20041;-66
2022/01/29 05:47:30;;;;;;;38.20;14.43;;;2.00;99.90;;;0.72;100.00;98989.75;5029568;28;20088;-67
2022/01/29 05:49:57;;;;;;;41.47;15.00;;;1.90;99.90;;;0.74;100.00;98999.16;5030584;28;20139;-66
2022/01/29 05:52:24;;;;;;;39.83;14.43;;;1.80;99.90;;;0.61;100.00;98985.28;5030022;28;20137;-67
2022/01/29 05:54:51;;;;;;;40.97;13.65;;;1.80;99.90;;;0.69;100.00;99002.47;5030213;28;20071;-67
2022/01/29 05:57:18;;;;;;;38.63;13.85;;;1.80;99.90;;;0.69;100.00;99005.88;5032546;28;20530;-67
2022/01/29 05:59:45;;;;;;;45.45;15.68;;;1.80;99.90;;;0.55;100.00;99003.06;5023325;28;20061;-67
2022/01/29 06:02:12;;;;;;;56.30;16.35;;;1.80;99.90;;;0.62;100.00;98999.78;5031568;28;20160;-68
2022/01/29 06:04:39;;;;;;;39.40;13.18;;;1.80;99.90;;;0.60;99.33;98978.47;5030890;28;20047;-66
2022/01/29 06:07:06;;;;;;;46.13;15.27;;;1.80;99.90;;;0.56;99.51;98999.66;5026865;28;20045;-67
2022/01/29 06:09:33;;;;;;;31.83;11.25;;;1.80;99.90;;;0.56;98.87;99015.00;5027819;28;20140;-65
2022/01/29 06:12:00;;;;;;;36.33;14.30;;;1.80;99.90;;;0.62;98.40;98983.59;5027750;28;20053;-66
2022/01/29 06:14:27;;;;;;;39.22;14.27;;;1.80;99.90;;;0.59;98.43;98999.75;5027475;28;20072;-67
2022/01/29 06:16:54;;;;;;;31.38;12.95;;;1.70;99.90;;;0.60;98.49;99019.34;5028681;28;20220;-67
2022/01/29 06:19:21;;;;;;;38.35;11.73;;;1.80;99.90;;;0.55;99.38;99007.31;5027471;28;20136;-66
2022/01/29 06:21:48;;;;;;;31.33;11.75;;;1.80;99.90;;;0.51;100.00;98995.31;5025838;28;20164;-66
2022/01/29 06:24:14;;;;;;;35.78;14.65;;;1.80;99.90;;;0.51;99.89;98995.31;5026540;28;20354;-67
2022/01/29 06:26:41;;;;;;;31.98;11.98;;;1.70;99.90;;;0.46;99.16;99007.97;5027842;28;20140;-67
2022/01/29 06:29:08;;;;;;;31.05;11.95;;;1.70;99.90;;;0.46;98.88;98982.44;5024613;28;20325;-66
2022/01/29 06:31:35;;;;;;;35.03;13.93;;;1.70;99.90;;;0.55;97.82;98986.88;5030756;28;20132;-66
2022/01/29 06:34:02;;;;;;;34.60;12.50;;;1.70;99.90;;;0.47;98.20;99014.81;5027108;28;20474;-67
2022/01/29 06:36:29;;;;;;;34.42;13.00;;;1.70;99.90;;;0.50;98.12;98985.91;5027817;28;20150;-67
2022/01/29 06:38:56;;;;;;;32.83;12.20;;;1.70;99.90;;;0.39;98.08;98993.38;5027569;28;20124;-65
2022/01/29 06:41:23;;;;;;;34.75;13.93;;;1.70;99.90;;;0.45;97.18;98982.41;5025667;28;20075;-67
2022/01/29 06:43:50;;;;;;;33.53;11.75;;;1.70;99.90;;;0.93;96.44;98979.06;5027073;28;20045;-68
2022/01/29 06:46:17;;;;;;;30.10;11.02;;;1.70;99.90;;;0.97;97.15;98965.50;5027921;28;20122;-67
2022/01/29 06:48:44;;;;;;;31.77;12.43;;;1.60;99.90;;;1.11;96.81;98964.03;5027116;28;20387;-66
2022/01/29 06:51:11;;;;;;;24.15;9.48;;;1.60;99.90;;;1.70;97.23;98968.41;5029457;28;20533;-66
2022/01/29 06:53:37;;;;;;;35.90;13.48;;;1.70;99.90;;;3.13;96.60;98950.50;5027175;28;20131;-67
2022/01/29 06:56:05;;;;;;;33.15;14.23;;;1.60;99.90;;;0.91;99.13;98975.63;5028083;28;20378;-67
2022/01/29 06:58:32;;;;;;;27.85;11.55;;;1.70;99.90;;;0.87;99.64;98976.38;5028065;28;20068;-67
2022/01/29 07:01:19;;;;;;;25.70;11.07;;;1.70;99.90;;;0.91;99.05;98973.91;5028819;28;20053;-66
2022/01/29 07:03:46;;;;;;;28.92;12.02;;;1.70;99.90;;;1.01;98.62;98968.16;5023611;28;20061;-67
2022/01/29 07:06:13;;;;;;;24.90;10.10;;;1.70;99.90;;;0.97;99.17;98989.38;5027703;28;20529;-66
2022/01/29 07:08:40;;;;;;;17.58;8.13;;;1.70;99.90;;;0.99;98.76;98976.63;5027059;28;20041;-67
2022/01/29 07:11:07;;;;;;;20.95;9.18;;;1.70;99.90;;;0.80;99.34;98993.31;5027408;28;20518;-66
2022/01/29 07:13:35;;;;;;;26.52;11.02;;;1.70;99.90;;;0.70;99.15;98984.59;5026883;28;20144;-66
2022/01/29 07:16:02;;;;;;;22.80;8.95;;;1.70;99.90;;;0.82;97.66;98959.28;5029553;28;20128;-69
2022/01/29 07:18:29;;;;;;;29.48;12.93;;;1.70;99.90;;;2.13;96.01;98956.22;5029015;28;20041;-66
2022/01/29 07:20:56;;;;;;;18.20;7.53;;;1.70;99.90;;;1.61;97.92;98979.38;5035169;28;20088;-69
2022/01/29 07:23:23;;;;;;;24.85;9.93;;;1.70;99.90;;;1.08;98.75;99011.72;5031485;28;20065;-67
2022/01/29 07:25:50;;;;;;;21.45;8.85;;;1.70;99.90;;;1.05;98.35;98979.31;5032820;28;20492;-68
2022/01/29 07:28:17;;;;;;;23.15;9.02;;;1.70;99.90;;;1.16;97.67;98966.69;5034459;28;20042;-66
2022/01/29 07:30:44;;;;;;;22.08;8.80;;;1.70;99.90;;;1.06;98.14;98980.16;5030749;28;20077;-65
2022/01/29 07:33:11;;;;;;;25.88;10.32;;;1.80;99.90;;;1.18;98.98;98965.88;5031231;28;20223;-66
2022/01/29 07:35:38;;;;;;;21.02;8.60;;;1.80;99.90;;;0.97;99.88;98983.41;5030803;28;20050;-66
2022/01/29 07:38:05;;;;;;;21.60;7.53;;;1.80;99.90;;;1.11;100.00;98965.75;5031018;28;20406;-66
2022/01/29 07:40:32;;;;;;;22.70;9.40;;;1.70;99.90;;;1.10;100.00;98970.00;5032179;28;20148;-67
2022/01/29 07:42:58;;;;;;;16.60;7.20;;;1.70;99.90;;;1.14;100.00;98971.78;5031273;28;20446;-66
2022/01/29 07:45:26;;;;;;;18.38;8.70;;;1.70;99.90;;;1.15;100.00;98991.41;5031392;28;20059;-67
2022/01/29 07:47:53;;;;;;;19.35;8.57;;;1.70;99.90;;;0.99;98.30;98987.72;5029941;28;20041;-67
2022/01/29 07:50:21;;;;;;;19.15;10.27;;;1.80;99.90;;;1.09;98.77;98970.81;5031641;28;20128;-67
2022/01/29 07:52:48;;;;;;;28.75;13.52;;;1.80;99.90;;;1.32;98.06;98963.53;5030568;28;20052;-66
2022/01/29 07:55:15;;;;;;;17.83;8.63;;;1.80;99.90;;;1.09;98.17;98950.38;5033684;28;20136;-67
2022/01/29 07:57:41;;;;;;;16.65;8.00;;;1.90;99.90;;;1.16;97.43;98962.41;5031535;28;20079;-66
2022/01/29 08:00:09;;;;;;;23.23;9.00;;;1.80;99.90;;;1.23;97.39;98956.59;5033192;28;20141;-66
2022/01/29 08:02:37;;;;;;;20.13;9.32;;;1.80;99.90;;;1.25;98.13;98960.06;5032309;28;20092;-67
2022/01/29 08:05:04;;;;;;;21.00;9.02;;;1.80;99.90;;;1.44;98.89;98962.91;5030525;28;20068;-67
2022/01/29 08:07:31;;;;;;;21.45;8.73;;;1.80;99.90;;;1.39;99.04;98961.94;5030550;28;20113;-67
2022/01/29 08:09:58;;;;;;;17.40;8.13;;;1.90;99.90;;;1.25;98.94;98972.84;5030814;28;20144;-67
2022/01/29 08:12:25;;;;;;;20.65;8.80;;;1.90;99.90;;;1.27;98.91;98949.81;5032381;28;20064;-66
2022/01/29 08:14:52;;;;;;;18.58;9.15;;;2.00;99.90;;;1.33;99.50;98956.75;5029793;28;20056;-67
2022/01/29 08:17:18;;;;;;;18.25;8.88;;;1.90;99.90;;;1.49;99.97;98943.38;5029973;28;20132;-66
2022/01/29 08:19:46;;;;;;;22.00;8.68;;;2.00;99.90;;;1.27;100.00;98957.50;5029654;28;20120;-66
2022/01/29 08:22:12;;;;;;;16.05;8.25;;;2.10;99.90;;;1.30;100.00;98946.44;5032425;28;20056;-66
2022/01/29 08:24:39;;;;;;;17.25;7.75;;;2.10;99.90;;;1.31;100.00;98960.97;5030326;28;20072;-67
2022/01/29 08:27:06;;;;;;;12.98;6.22;;;2.10;99.90;;;1.55;98.87;98923.00;5028733;28;20045;-66
2022/01/29 08:29:33;;;;;;;16.00;6.95;;;2.10;99.90;;;1.63;99.96;98933.34;5028310;28;20465;-67
2022/01/29 08:32:00;;;;;;;16.17;7.18;;;2.20;99.90;;;1.79;100.00;98934.41;5028999;28;20049;-67
2022/01/29 08:34:27;;;;;;;15.30;7.13;;;2.20;99.90;;;1.90;100.00;98944.81;5031438;28;20061;-66
2022/01/29 08:37:00;;;;;;;10.55;5.00;;;2.20;99.90;;;1.69;99.63;98930.88;5028699;28;20148;-66
2022/01/29 08:39:28;;;;;;;8.17;4.53;;;2.20;99.90;;;1.48;100.00;98948.44;5027518;28;20084;-66
2022/01/29 08:41:55;;;;;;;12.15;5.75;;;2.20;99.90;;;1.56;100.00;98934.94;5031723;28;20318;-66
2022/01/29 08:44:22;;;;;;;8.70;4.05;;;2.20;99.90;;;1.55;100.00;98940.03;5028949;28;20125;-67
2022/01/29 08:46:50;;;;;;;10.40;5.22;;;2.20;99.90;;;1.57;100.00;98948.59;5031635;28;20049;-66
2022/01/29 08:49:17;;;;;;;9.68;4.38;;;2.20;99.90;;;1.61;100.00;98932.44;5030412;28;20390;-67
2022/01/29 08:51:44;;;;;;;9.65;5.18;;;2.20;99.90;;;1.54;100.00;98951.97;5029862;28;20132;-66
2022/01/29 08:54:11;;;;;;;10.25;5.20;;;2.10;99.90;;;1.61;99.46;98935.00;5028335;28;20069;-66
2022/01/29 08:56:38;;;;;;;9.20;4.68;;;2.20;99.90;;;1.76;100.00;98916.47;5031311;28;20132;-66
2022/01/29 08:59:05;;;;;;;12.15;5.40;;;2.10;99.90;;;1.48;100.00;98944.19;5030800;28;20356;-67
2022/01/29 09:01:32;;;;;;;9.65;4.63;;;2.20;99.90;;;1.63;100.00;98933.34;5030087;28;20089;-67
2022/01/29 09:04:00;;;;;;;11.52;5.55;;;2.20;99.90;;;1.73;100.00;98942.84;5031952;28;20049;-67
2022/01/29 09:06:27;;;;;;;9.27;4.70;;;2.20;99.90;;;1.68;100.00;98944.50;5028459;28;20073;-67
2022/01/29 09:08:54;;;;;;;9.80;4.90;;;2.20;99.90;;;1.78;100.00;98937.78;5031410;28;20383;-67
2022/01/29 09:11:21;;;;;;;10.10;5.07;;;2.20;99.90;;;1.52;100.00;98951.06;5031494;28;20073;-67
2022/01/29 09:13:48;;;;;;;7.07;3.08;;;2.20;99.90;;;1.53;100.00;98957.03;5028633;28;20224;-66
2022/01/29 09:16:15;;;;;;;10.57;4.85;;;2.20;99.90;;;1.61;100.00;98956.34;5029785;28;20456;-67
2022/01/29 09:18:42;;;;;;;9.57;4.72;;;2.20;99.90;;;1.64;100.00;98940.16;5028518;28;20068;-67
2022/01/29 09:21:10;;;;;;;8.75;4.55;;;2.10;99.90;;;1.48;100.00;98943.31;5029285;28;20140;-67
2022/01/29 09:23:36;;;;;;;9.15;4.70;;;2.20;99.90;;;1.55;100.00;98950.25;5029616;28;20077;-67
2022/01/29 09:26:04;;;;;;;8.80;4.28;;;2.20;99.90;;;1.57;100.00;98952.00;5031543;28;20909;-67
2022/01/29 09:28:30;;;;;;;7.75;3.03;;;2.20;99.90;;;1.57;100.00;98911.06;5029722;28;20056;-67
2022/01/29 09:30:58;;;;;;;9.70;4.95;;;2.10;99.90;;;1.80;100.00;98931.88;5028945;28;20112;-67
2022/01/29 09:33:25;;;;;;;7.63;3.47;;;2.20;99.90;;;1.64;100.00;98935.94;5030093;28;20085;-67
2022/01/29 09:35:52;;;;;;;7.93;2.80;;;2.10;99.90;;;1.69;100.00;98902.72;5029203;28;20061;-67
2022/01/29 09:38:19;;;;;;;12.57;5.65;;;2.20;99.90;;;1.84;100.00;98917.41;5028657;28;20125;-68
2022/01/29 09:40:46;;;;;;;8.10;3.85;;;2.30;99.90;;;1.59;100.00;98931.56;5028683;28;20053;-67
2022/01/29 09:43:13;;;;;;;7.65;3.92;;;2.30;99.90;;;1.69;100.00;98910.41;5029077;28;20458;-68
2022/01/29 09:45:40;;;;;;;11.90;5.32;;;2.30;99.90;;;1.55;100.00;98946.03;5011469;28;20054;-67
2022/01/29 09:48:07;;;;;;;9.85;4.63;;;2.30;99.90;;;1.74;100.00;98915.59;5027439;28;20045;-67
2022/01/29 09:50:37;;;;;;;10.52;4.35;;;2.30;99.90;;;1.82;100.00;98911.41;5028536;28;20124;-67
2022/01/29 09:53:06;;;;;;;10.27;4.53;;;2.30;99.90;;;1.60;100.00;98900.03;5025613;28;20050;-67
2022/01/29 09:55:33;;;;;;;6.05;3.05;;;2.30;99.90;;;1.73;100.00;98921.53;5032897;28;20381;-67
2022/01/29 09:58:00;;;;;;;8.55;3.95;;;2.30;99.90;;;1.85;100.00;98902.09;5029808;28;20059;-67
2022/01/29 10:00:28;;;;;;;10.43;4.63;;;2.40;99.90;;;1.79;100.00;98912.22;5032018;28;20043;-67
2022/01/29 10:03:10;;;;;;;9.35;4.25;;;2.30;99.90;;;1.70;100.00;98924.06;5027678;28;20077;-67
2022/01/29 10:05:46;;;;;;;9.65;4.57;;;2.40;99.90;;;1.79;100.00;98916.50;5029742;28;20538;-67
2022/01/29 10:08:14;;;;;;;11.10;4.78;;;2.50;99.90;;;1.87;100.00;98920.91;5027855;28;20083;-68
2022/01/29 10:10:44;;;;;;;8.43;3.60;;;2.40;99.90;;;2.01;100.00;98908.28;5029569;28;20484;-67
2022/01/29 10:13:41;;;;;;;11.68;5.05;;;2.40;99.90;;;2.01;100.00;98902.28;5029262;28;20193;-67
2022/01/29 10:16:11;;;;;;;10.20;5.05;;;2.40;99.90;;;1.68;100.00;98918.91;5023672;28;20465;-67
2022/01/29 10:18:40;;;;;;;9.80;4.70;;;2.50;99.90;;;1.79;100.00;98894.31;5031683;28;20471;-68
2022/01/29 10:21:12;;;;;;;10.32;4.47;;;2.50;99.90;;;2.01;100.00;98892.91;5033204;28;20132;-67
2022/01/29 10:23:41;;;;;;;16.20;7.80;;;2.50;99.90;;;1.84;100.00;98917.41;5029472;28;20105;-67
2022/01/29 10:26:10;;;;;;;11.30;5.22;;;2.50;99.90;;;1.78;100.00;98931.00;5045468;28;20045;-67
2022/01/29 10:28:38;;;;;;;13.32;5.05;;;2.50;99.90;;;1.78;100.00;98922.44;5027524;28;20073;-67
2022/01/29 10:31:07;;;;;;;14.90;6.30;;;2.60;99.90;;;1.78;100.00;98899.41;5033210;28;20132;-68